Union, WV

10:47 PM EDT on September 28, 2016 (GMT -0400)
kc8ysl kc8zec Organ Cave | | Change Station

Elev 2310 ft 37.71 °N, 80.42 °W | Updated 12 seconds ago

Mostly Cloudy
Mostly Cloudy
61.6 °F
Feels Like 61.6 °F
N
0.0
Wind Variable Wind from SW
Gusts 0.0 mph

Today
High -- | Low -- °F
--% Chance of Precip.
Yesterday
High -- | Low -- °F
Precip. -- in
Pressure 29.97 in
Visibility 10.0 miles
Clouds Scattered Clouds 1800 ft
Scattered Clouds 3800 ft
Mostly Cloudy 10000 ft
Dew Point 57 °F
Humidity 84%
Rainfall 0.11 in
Snow Depth Not available.
7:15 AM 7:09 PM
Waning Crescent, 3% visible
METAR KLWB 290235Z AUTO 00000KT 10SM SCT018 SCT038 BKN100 18/16 A2997 RMK AO2 LTG DSNT E P0003 T01790164
Pressure 29.97 in
Visibility 10.0 miles
Clouds Scattered Clouds 1800 ft
Scattered Clouds 3800 ft
Mostly Cloudy 10000 ft
Dew Point 57 °F
Humidity 84%
Rainfall 0.11 in
Snow Depth Not available.
7:15 AM 7:09 PM
Waning Crescent, 3% visible
METAR KLWB 290235Z AUTO 00000KT 10SM SCT018 SCT038 BKN100 18/16 A2997 RMK AO2 LTG DSNT E P0003 T01790164

10-Day Weather Forecast

Almanac

Astronomy

Sep. 28, 2016 Rise Set
Actual Time
Civil Twilight
Nautical Twilight
Astronomical Twilight
Moon
Length of Visible Light
Length of Day
Tomorrow will be .
, % of the Moon is Illuminated

Today's Extremes

State Highs State Lows

Community

WunderPhotos

Upload Photos

1,942,402 photos uploaded!

WunderBlog® & News

Nearby

Air Quality

  Air Quality AQ Index Pollutant
Not available.

Snow Depth

Station Depth Elevation

Earthquake Activity

City Distance Mag. Time & Date
Minimum magnitude displayed is 2.5.

Coastal Water Temperatures

Place Temperature

Stations

Nearby Weather Stations

Station Location Temp. Windchill Dew Point Humidity Wind Precip. Elev Updated Type
                   

Watches & Warnings

There are currently no watches in effect.